createdAt,value
2022-08-20T00:00:06.893Z,100.00
2022-08-20T00:00:41.149Z,100.00
2022-08-20T00:01:12.662Z,100.00
2022-08-20T00:01:44.858Z,100.00
2022-08-20T00:02:16.627Z,100.00
2022-08-20T00:02:50.822Z,100.00
2022-08-20T00:03:29.111Z,100.00
2022-08-20T00:04:01.718Z,100.00
2022-08-20T00:04:33.228Z,100.00
2022-08-20T00:05:04.872Z,100.00
2022-08-20T00:05:38.791Z,100.00
2022-08-20T00:06:14.729Z,100.00
2022-08-20T00:06:46.233Z,100.00
2022-08-20T00:07:17.951Z,100.00
2022-08-20T00:07:49.551Z,100.00
2022-08-20T00:08:21.812Z,100.00
2022-08-20T00:08:53.235Z,100.00
2022-08-20T00:09:24.675Z,100.00
2022-08-20T00:10:01.452Z,100.00
2022-08-20T00:10:33.518Z,100.00
2022-08-20T00:11:05.652Z,100.00
2022-08-20T00:11:37.677Z,100.00
2022-08-20T00:12:09.857Z,100.00
2022-08-20T00:12:44.696Z,100.00
2022-08-20T00:13:18.070Z,100.00
2022-08-20T00:13:51.510Z,100.00
2022-08-20T00:14:23.033Z,100.00
2022-08-20T00:14:54.493Z,100.00
2022-08-20T00:15:28.428Z,100.00
2022-08-20T00:15:59.941Z,100.00
2022-08-20T00:16:32.667Z,100.00
2022-08-20T00:17:04.278Z,100.00
2022-08-20T00:17:38.812Z,100.00
2022-08-20T00:18:10.514Z,100.00
2022-08-20T00:18:44.365Z,100.00
2022-08-20T00:19:15.837Z,100.00
2022-08-20T00:19:47.288Z,100.00
2022-08-20T00:20:19.565Z,100.00
2022-08-20T00:20:51.954Z,100.00
2022-08-20T00:21:25.468Z,100.00
2022-08-20T00:21:58.169Z,100.00
2022-08-20T00:22:30.768Z,100.00
2022-08-20T00:23:03.136Z,100.00
2022-08-20T00:23:39.656Z,100.00
2022-08-20T00:24:11.076Z,100.00
2022-08-20T00:24:42.846Z,100.00
2022-08-20T00:25:14.591Z,100.00
2022-08-20T00:25:46.542Z,100.00
2022-08-20T00:26:19.048Z,100.00
2022-08-20T00:26:52.257Z,100.00
2022-08-20T00:27:24.387Z,100.00
2022-08-20T00:27:56.783Z,100.00
2022-08-20T00:28:28.279Z,100.00
2022-08-20T00:28:59.740Z,100.00
2022-08-20T00:29:31.560Z,100.00
2022-08-20T00:30:04.828Z,100.00
2022-08-20T00:30:36.532Z,100.00
2022-08-20T00:31:09.269Z,100.00
2022-08-20T00:31:40.698Z,100.00
2022-08-20T00:32:12.288Z,100.00
2022-08-20T00:32:44.736Z,100.00
2022-08-20T00:33:17.488Z,100.00
2022-08-20T00:33:49.127Z,100.00
2022-08-20T00:34:20.548Z,100.00
2022-08-20T00:34:51.989Z,100.00
2022-08-20T00:35:26.149Z,100.00
2022-08-20T00:35:57.759Z,100.00
2022-08-20T00:36:32.409Z,100.00
2022-08-20T00:37:04.804Z,100.00
2022-08-20T00:37:36.280Z,100.00
2022-08-20T00:38:08.249Z,100.00
2022-08-20T00:38:40.808Z,100.00
2022-08-20T00:39:12.366Z,100.00
2022-08-20T00:39:44.151Z,100.00
2022-08-20T00:40:22.746Z,100.00
2022-08-20T00:40:58.136Z,100.00
2022-08-20T00:41:29.834Z,100.00
2022-08-20T00:42:01.528Z,100.00
2022-08-20T00:42:40.020Z,100.00
2022-08-20T00:43:25.582Z,100.00
2022-08-20T00:44:05.880Z,100.00
2022-08-20T00:44:37.359Z,100.00
2022-08-20T00:45:09.570Z,100.00
2022-08-20T00:45:41.000Z,100.00
2022-08-20T00:46:14.159Z,100.00
2022-08-20T00:46:46.530Z,100.00
2022-08-20T00:47:18.052Z,100.00
2022-08-20T00:47:51.458Z,100.00
2022-08-20T00:48:25.323Z,100.00
2022-08-20T00:48:58.586Z,100.00
2022-08-20T00:49:32.053Z,100.00
2022-08-20T00:50:06.361Z,100.00
2022-08-20T00:50:37.813Z,100.00
2022-08-20T00:51:09.235Z,100.00
2022-08-20T00:51:42.389Z,100.00
2022-08-20T00:52:15.424Z,100.00
2022-08-20T00:52:49.385Z,100.00
2022-08-20T00:53:22.914Z,100.00
2022-08-20T00:53:56.149Z,100.00
2022-08-20T00:54:50.764Z,100.00
2022-08-20T00:55:24.410Z,100.00
2022-08-20T00:55:58.026Z,100.00
2022-08-20T00:56:31.174Z,100.00
2022-08-20T00:57:04.874Z,100.00
2022-08-20T00:57:59.806Z,100.00
2022-08-20T00:58:33.612Z,100.00
2022-08-20T00:59:06.230Z,100.00
2022-08-20T00:59:40.031Z,100.00
2022-08-20T01:00:14.063Z,100.00
2022-08-20T01:00:46.766Z,100.00
2022-08-20T01:01:19.294Z,100.00
2022-08-20T01:01:55.903Z,100.00
2022-08-20T01:02:28.377Z,100.00
2022-08-20T01:03:00.759Z,100.00
2022-08-20T01:03:33.193Z,100.00
2022-08-20T01:04:05.525Z,100.00
2022-08-20T01:04:37.360Z,100.00
2022-08-20T01:05:10.126Z,100.00
2022-08-20T01:05:44.716Z,100.00
2022-08-20T01:06:16.304Z,100.00
2022-08-20T01:06:48.701Z,100.00
2022-08-20T01:07:20.816Z,100.00
2022-08-20T01:07:53.816Z,100.00
2022-08-20T01:08:26.849Z,100.00
2022-08-20T01:09:02.245Z,100.00
2022-08-20T01:09:58.174Z,100.00
2022-08-20T01:10:27.743Z,100.00
2022-08-20T01:11:10.407Z,100.00
2022-08-20T01:11:41.849Z,100.00
2022-08-20T01:12:13.812Z,100.00
2022-08-20T01:12:46.429Z,100.00
2022-08-20T01:13:20.472Z,100.00
2022-08-20T01:13:51.960Z,100.00
2022-08-20T01:14:28.556Z,100.00
2022-08-20T01:15:01.439Z,100.00
2022-08-20T01:15:32.875Z,100.00
2022-08-20T01:16:05.147Z,100.00
2022-08-20T01:16:36.630Z,100.00
2022-08-20T01:17:17.674Z,100.00
2022-08-20T01:17:50.583Z,100.00
2022-08-20T01:18:25.045Z,100.00
2022-08-20T01:18:57.691Z,100.00
2022-08-20T01:19:30.650Z,100.00
2022-08-20T01:20:02.132Z,100.00
2022-08-20T01:20:34.762Z,100.00
2022-08-20T01:21:06.384Z,100.00
2022-08-20T01:21:37.953Z,100.00
2022-08-20T01:22:28.103Z,100.00
2022-08-20T01:23:23.284Z,100.00
2022-08-20T01:23:55.053Z,100.00
2022-08-20T01:24:33.103Z,100.00
2022-08-20T01:25:06.464Z,100.00
2022-08-20T01:25:40.903Z,100.00
2022-08-20T01:26:14.471Z,100.00
2022-08-20T01:26:46.145Z,100.00
2022-08-20T01:27:18.007Z,100.00
2022-08-20T01:27:55.113Z,100.00
2022-08-20T01:28:32.625Z,100.00
2022-08-20T01:29:08.650Z,100.00
2022-08-20T01:29:40.127Z,100.00
2022-08-20T01:30:14.045Z,100.00
2022-08-20T01:30:45.507Z,100.00
2022-08-20T01:31:18.491Z,100.00
2022-08-20T01:31:51.612Z,100.00
2022-08-20T01:32:23.075Z,100.00
2022-08-20T01:32:54.616Z,100.00
2022-08-20T01:33:26.148Z,100.00
2022-08-20T01:33:58.211Z,100.00
2022-08-20T01:34:30.068Z,100.00
2022-08-20T01:35:01.676Z,100.00
2022-08-20T01:35:39.932Z,100.00
2022-08-20T01:36:12.829Z,100.00
2022-08-20T01:36:46.594Z,100.00
2022-08-20T01:37:18.179Z,100.00
2022-08-20T01:37:49.773Z,100.00
2022-08-20T01:38:21.324Z,100.00
2022-08-20T01:38:54.679Z,100.00
2022-08-20T01:39:30.550Z,100.00
2022-08-20T01:40:04.003Z,100.00
2022-08-20T01:40:40.617Z,100.00
2022-08-20T01:41:31.072Z,100.00
2022-08-20T01:42:08.550Z,100.00
2022-08-20T01:42:58.514Z,100.00
2022-08-20T01:43:32.276Z,100.00
2022-08-20T01:44:09.205Z,100.00
2022-08-20T01:44:50.072Z,100.00
2022-08-20T01:45:21.523Z,100.00
2022-08-20T01:45:58.553Z,100.00
2022-08-20T01:46:32.853Z,100.00
2022-08-20T01:47:10.053Z,100.00
2022-08-20T01:47:42.387Z,100.00
2022-08-20T01:48:16.263Z,100.00
2022-08-20T01:48:47.887Z,100.00
2022-08-20T01:49:22.843Z,100.00
2022-08-20T01:49:55.987Z,100.00
2022-08-20T01:50:28.168Z,100.00
2022-08-20T01:51:19.901Z,100.00
2022-08-20T01:51:55.055Z,100.00
2022-08-20T01:52:45.248Z,100.00
2022-08-20T01:53:16.930Z,100.00
2022-08-20T01:53:49.559Z,100.00
2022-08-20T01:54:21.342Z,100.00
2022-08-20T01:54:53.034Z,100.00
2022-08-20T01:55:26.685Z,100.00
2022-08-20T01:55:58.212Z,100.00
2022-08-20T01:56:30.852Z,100.00
2022-08-20T01:57:07.135Z,100.00
2022-08-20T01:57:38.652Z,100.00
2022-08-20T01:58:10.121Z,100.00
2022-08-20T01:58:42.929Z,100.00
2022-08-20T01:59:14.361Z,100.00
2022-08-20T01:59:46.146Z,100.00
2022-08-20T02:00:19.601Z,100.00
2022-08-20T02:00:52.247Z,100.00
2022-08-20T02:01:26.473Z,100.00
2022-08-20T02:01:58.810Z,100.00
2022-08-20T02:02:30.340Z,100.00
2022-08-20T02:03:03.227Z,100.00
2022-08-20T02:03:38.801Z,100.00
2022-08-20T02:04:15.407Z,100.00
2022-08-20T02:04:47.310Z,100.00
2022-08-20T02:05:19.238Z,100.00
2022-08-20T02:05:50.687Z,100.00
2022-08-20T02:06:25.543Z,100.00
2022-08-20T02:06:58.836Z,100.00
2022-08-20T02:07:31.549Z,100.00
2022-08-20T02:08:03.881Z,100.00
2022-08-20T02:08:35.383Z,100.00
2022-08-20T02:09:07.664Z,100.00
2022-08-20T02:09:39.473Z,100.00
2022-08-20T02:10:11.995Z,100.00
2022-08-20T02:10:46.150Z,100.00
2022-08-20T02:11:17.584Z,100.00
2022-08-20T02:11:49.342Z,100.00
2022-08-20T02:12:20.838Z,100.00
2022-08-20T02:12:53.092Z,100.00
2022-08-20T02:13:25.360Z,100.00
2022-08-20T02:13:58.112Z,100.00
2022-08-20T02:14:30.225Z,100.00
2022-08-20T02:15:02.559Z,100.00
2022-08-20T02:15:37.234Z,100.00
2022-08-20T02:16:09.248Z,100.00
2022-08-20T02:16:43.652Z,100.00
2022-08-20T02:17:26.132Z,100.00
2022-08-20T02:17:57.844Z,100.00
2022-08-20T02:18:29.287Z,100.00
2022-08-20T02:19:02.031Z,100.00
2022-08-20T02:19:35.043Z,100.00
2022-08-20T02:20:10.899Z,100.00
2022-08-20T02:20:43.388Z,100.00
2022-08-20T02:21:14.825Z,100.00
2022-08-20T02:21:49.410Z,100.00
2022-08-20T02:22:22.088Z,100.00
2022-08-20T02:22:58.707Z,100.00
2022-08-20T02:23:30.495Z,100.00
2022-08-20T02:24:02.409Z,100.00
2022-08-20T02:24:35.682Z,100.00
2022-08-20T02:25:08.002Z,100.00
2022-08-20T02:25:40.349Z,100.00
2022-08-20T02:26:11.878Z,100.00
2022-08-20T02:26:43.396Z,100.00
2022-08-20T02:27:14.864Z,100.00
2022-08-20T02:27:46.691Z,100.00
2022-08-20T02:28:19.783Z,100.00
2022-08-20T02:28:51.541Z,100.00
2022-08-20T02:29:23.811Z,100.00
2022-08-20T02:29:55.220Z,100.00
2022-08-20T02:30:29.204Z,100.00
2022-08-20T02:31:01.624Z,100.00
2022-08-20T02:31:35.020Z,100.00
2022-08-20T02:32:32.190Z,100.00
2022-08-20T02:32:59.864Z,100.00
2022-08-20T02:33:31.404Z,100.00
2022-08-20T02:34:21.750Z,100.00
2022-08-20T02:34:54.411Z,100.00
2022-08-20T02:35:26.127Z,100.00
2022-08-20T02:35:57.604Z,100.00
2022-08-20T02:36:29.368Z,100.00
2022-08-20T02:37:01.336Z,100.00
2022-08-20T02:37:32.847Z,100.00
2022-08-20T02:38:04.265Z,100.00
2022-08-20T02:38:35.757Z,100.00
2022-08-20T02:39:09.535Z,100.00
2022-08-20T02:39:41.414Z,100.00
2022-08-20T02:40:14.636Z,100.00
2022-08-20T02:40:46.461Z,100.00
2022-08-20T02:41:18.498Z,100.00
2022-08-20T02:41:50.265Z,100.00
2022-08-20T02:42:21.937Z,100.00
2022-08-20T02:42:53.918Z,100.00
2022-08-20T02:43:25.411Z,100.00
2022-08-20T02:43:57.139Z,100.00
2022-08-20T02:44:28.648Z,100.00
2022-08-20T02:45:00.118Z,100.00
2022-08-20T02:45:36.090Z,100.00
2022-08-20T02:46:08.021Z,100.00
2022-08-20T02:46:39.508Z,100.00
2022-08-20T02:47:12.766Z,100.00
2022-08-20T02:47:45.467Z,100.00
2022-08-20T02:48:21.348Z,100.00
2022-08-20T02:48:53.479Z,100.00
2022-08-20T02:49:24.947Z,100.00
2022-08-20T02:49:57.937Z,100.00
2022-08-20T02:50:29.632Z,100.00
2022-08-20T02:51:01.979Z,100.00
2022-08-20T02:51:33.620Z,100.00
2022-08-20T02:52:05.138Z,100.00
2022-08-20T02:52:36.575Z,100.00
2022-08-20T02:53:08.005Z,100.00
2022-08-20T02:53:41.214Z,100.00
2022-08-20T02:54:12.842Z,100.00
2022-08-20T02:54:44.655Z,100.00
2022-08-20T02:55:23.133Z,100.00
2022-08-20T02:56:00.527Z,100.00
2022-08-20T02:56:31.982Z,100.00
2022-08-20T02:57:04.394Z,100.00
2022-08-20T02:57:35.904Z,100.00
2022-08-20T02:58:07.371Z,100.00
2022-08-20T02:58:39.137Z,100.00
2022-08-20T02:59:10.759Z,100.00
2022-08-20T02:59:52.322Z,100.00
2022-08-20T03:00:23.881Z,100.00
2022-08-20T03:00:56.687Z,100.00
2022-08-20T03:01:28.202Z,100.00
2022-08-20T03:02:00.320Z,100.00
2022-08-20T03:02:32.512Z,100.00
2022-08-20T03:03:04.031Z,100.00
2022-08-20T03:03:35.501Z,100.00
2022-08-20T03:04:06.968Z,100.00
2022-08-20T03:04:38.388Z,100.00
2022-08-20T03:05:10.036Z,100.00
2022-08-20T03:05:43.561Z,100.00
2022-08-20T03:06:16.120Z,100.00
2022-08-20T03:06:47.641Z,100.00
2022-08-20T03:07:19.099Z,100.00
2022-08-20T03:07:53.806Z,100.00
2022-08-20T03:08:25.581Z,100.00
2022-08-20T03:08:57.319Z,100.00
2022-08-20T03:09:28.763Z,100.00
2022-08-20T03:10:00.628Z,100.00
2022-08-20T03:10:33.569Z,100.00
2022-08-20T03:11:05.303Z,100.00
2022-08-20T03:11:36.909Z,100.00
2022-08-20T03:12:08.583Z,100.00
2022-08-20T03:12:40.356Z,100.00
2022-08-20T03:13:12.665Z,100.00
2022-08-20T03:13:44.167Z,100.00
2022-08-20T03:14:15.596Z,100.00
2022-08-20T03:14:47.051Z,100.00
2022-08-20T03:15:18.720Z,100.00
2022-08-20T03:15:55.356Z,100.00
2022-08-20T03:16:30.101Z,100.00
2022-08-20T03:17:01.569Z,100.00
2022-08-20T03:17:33.034Z,100.00
2022-08-20T03:18:04.456Z,100.00
2022-08-20T03:18:37.633Z,100.00
2022-08-20T03:19:09.152Z,100.00
2022-08-20T03:19:40.571Z,100.00
2022-08-20T03:20:12.522Z,100.00
2022-08-20T03:20:46.018Z,100.00
2022-08-20T03:21:18.361Z,100.00
2022-08-20T03:21:50.013Z,100.00
2022-08-20T03:22:21.461Z,100.00
2022-08-20T03:22:53.120Z,100.00
2022-08-20T03:23:24.683Z,100.00
2022-08-20T03:23:56.111Z,100.00
2022-08-20T03:24:27.541Z,100.00
2022-08-20T03:24:58.959Z,100.00
2022-08-20T03:25:30.403Z,100.00
2022-08-20T03:26:02.880Z,100.00
2022-08-20T03:26:36.008Z,100.00
2022-08-20T03:27:07.425Z,100.00
2022-08-20T03:27:39.847Z,100.00
2022-08-20T03:28:11.518Z,100.00
2022-08-20T03:28:43.043Z,100.00
2022-08-20T03:29:14.563Z,100.00
2022-08-20T03:29:46.018Z,100.00
2022-08-20T03:30:17.677Z,100.00
2022-08-20T03:30:50.357Z,100.00
2022-08-20T03:31:21.872Z,100.00
2022-08-20T03:31:53.322Z,100.00
2022-08-20T03:32:24.824Z,100.00
2022-08-20T03:32:57.978Z,100.00
2022-08-20T03:33:31.504Z,100.00
2022-08-20T03:34:03.024Z,100.00
2022-08-20T03:34:34.779Z,100.00
2022-08-20T03:35:06.976Z,100.00
2022-08-20T03:35:39.143Z,100.00
2022-08-20T03:36:10.627Z,100.00
2022-08-20T03:36:42.684Z,100.00
2022-08-20T03:37:14.365Z,100.00
2022-08-20T03:37:54.322Z,100.00
2022-08-20T03:38:33.195Z,100.00
2022-08-20T03:39:06.257Z,100.00
2022-08-20T03:39:38.088Z,100.00
2022-08-20T03:40:11.613Z,100.00
2022-08-20T03:40:43.058Z,100.00
2022-08-20T03:41:14.564Z,100.00
2022-08-20T03:41:46.040Z,100.00
2022-08-20T03:42:17.520Z,100.00
2022-08-20T03:42:48.945Z,100.00
2022-08-20T03:43:20.546Z,100.00
2022-08-20T03:43:52.629Z,100.00
2022-08-20T03:44:24.198Z,100.00
2022-08-20T03:44:58.628Z,100.00
2022-08-20T03:45:32.457Z,100.00
2022-08-20T03:46:04.126Z,100.00
2022-08-20T03:46:36.009Z,100.00
2022-08-20T03:47:09.377Z,100.00
2022-08-20T03:47:41.515Z,100.00
2022-08-20T03:48:15.268Z,100.00
2022-08-20T03:48:46.807Z,100.00
2022-08-20T03:49:20.935Z,100.00
2022-08-20T03:49:52.374Z,100.00
2022-08-20T03:50:26.249Z,100.00
2022-08-20T03:51:00.741Z,100.00
2022-08-20T03:51:34.358Z,100.00
2022-08-20T03:52:24.381Z,100.00
2022-08-20T03:52:55.965Z,100.00
2022-08-20T03:53:31.585Z,100.00
2022-08-20T03:54:03.117Z,100.00
2022-08-20T03:54:34.695Z,100.00
2022-08-20T03:55:07.537Z,100.00
2022-08-20T03:55:39.940Z,100.00
2022-08-20T03:56:12.289Z,100.00
2022-08-20T03:56:43.723Z,100.00
2022-08-20T03:57:15.579Z,100.00
2022-08-20T03:57:54.618Z,100.00
2022-08-20T03:58:30.038Z,100.00
2022-08-20T03:59:08.321Z,100.00
2022-08-20T03:59:39.876Z,100.00
2022-08-20T04:00:13.455Z,100.00
2022-08-20T04:00:49.313Z,100.00
2022-08-20T04:01:45.646Z,100.00
2022-08-20T04:02:12.383Z,100.00
2022-08-20T04:02:43.948Z,100.00
2022-08-20T04:03:15.521Z,100.00
2022-08-20T04:03:48.497Z,100.00
2022-08-20T04:04:22.102Z,100.00
2022-08-20T04:04:55.083Z,100.00
2022-08-20T04:05:28.337Z,100.00
2022-08-20T04:05:59.950Z,100.00
2022-08-20T04:06:31.685Z,100.00
2022-08-20T04:07:16.906Z,100.00
2022-08-20T04:07:48.333Z,100.00
2022-08-20T04:08:21.330Z,100.00
2022-08-20T04:08:54.070Z,100.00
2022-08-20T04:09:25.486Z,100.00
2022-08-20T04:09:57.489Z,100.00
2022-08-20T04:10:28.923Z,100.00
2022-08-20T04:11:00.499Z,100.00
2022-08-20T04:11:33.527Z,100.00
2022-08-20T04:12:05.044Z,100.00
2022-08-20T04:12:48.715Z,100.00
2022-08-20T04:13:24.947Z,100.00
2022-08-20T04:13:56.483Z,100.00
2022-08-20T04:14:27.961Z,100.00
2022-08-20T04:15:01.006Z,100.00
2022-08-20T04:15:34.597Z,100.00
2022-08-20T04:16:11.288Z,100.00
2022-08-20T04:16:46.478Z,100.00
2022-08-20T04:17:20.600Z,100.00
2022-08-20T04:17:54.219Z,100.00
2022-08-20T04:18:26.240Z,100.00
2022-08-20T04:19:01.803Z,100.00
2022-08-20T04:19:34.366Z,100.00
2022-08-20T04:20:06.133Z,100.00
2022-08-20T04:20:38.997Z,100.00
2022-08-20T04:21:10.674Z,100.00
2022-08-20T04:21:42.111Z,100.00
2022-08-20T04:22:16.619Z,100.00
2022-08-20T04:22:58.603Z,100.00
2022-08-20T04:23:31.442Z,100.00
2022-08-20T04:24:03.869Z,100.00
2022-08-20T04:24:35.332Z,100.00
2022-08-20T04:25:08.868Z,100.00
2022-08-20T04:25:42.531Z,100.00
2022-08-20T04:26:14.935Z,100.00
2022-08-20T04:26:46.360Z,100.00
2022-08-20T04:27:17.797Z,100.00
2022-08-20T04:27:51.987Z,100.00
2022-08-20T04:28:28.732Z,100.00
2022-08-20T04:29:00.188Z,100.00
2022-08-20T04:29:31.865Z,100.00
2022-08-20T04:30:05.094Z,100.00
2022-08-20T04:30:36.798Z,100.00
2022-08-20T04:31:08.322Z,100.00
2022-08-20T04:31:39.785Z,100.00
2022-08-20T04:32:12.227Z,100.00
2022-08-20T04:32:43.867Z,100.00
2022-08-20T04:33:17.175Z,100.00
2022-08-20T04:33:54.101Z,100.00
2022-08-20T04:34:25.952Z,100.00
2022-08-20T04:34:58.692Z,100.00
2022-08-20T04:35:30.629Z,100.00
2022-08-20T04:36:02.894Z,100.00
2022-08-20T04:36:35.183Z,100.00
2022-08-20T04:37:16.575Z,100.00
2022-08-20T04:37:48.520Z,100.00
2022-08-20T04:38:20.907Z,100.00
2022-08-20T04:38:52.376Z,100.00
2022-08-20T04:39:23.881Z,100.00
2022-08-20T04:40:14.049Z,100.00
2022-08-20T04:40:55.698Z,100.00
2022-08-20T04:41:27.259Z,100.00
2022-08-20T04:41:58.849Z,100.00
2022-08-20T04:42:30.275Z,100.00
2022-08-20T04:43:02.245Z,100.00
2022-08-20T04:43:35.159Z,100.00
2022-08-20T04:44:06.586Z,100.00
2022-08-20T04:44:39.826Z,100.00
2022-08-20T04:45:11.320Z,100.00
2022-08-20T04:45:42.851Z,100.00
2022-08-20T04:46:14.463Z,100.00
2022-08-20T04:46:45.899Z,100.00
2022-08-20T04:47:21.401Z,100.00
2022-08-20T04:48:09.629Z,100.00
2022-08-20T04:48:49.078Z,100.00
2022-08-20T04:49:25.027Z,100.00
2022-08-20T04:50:00.082Z,100.00
2022-08-20T04:50:39.211Z,100.00
2022-08-20T04:51:12.389Z,100.00
2022-08-20T04:51:43.855Z,100.00
2022-08-20T04:52:15.283Z,100.00
2022-08-20T04:52:49.078Z,100.00
2022-08-20T04:53:25.653Z,100.00
2022-08-20T04:53:57.799Z,100.00
2022-08-20T04:54:29.276Z,100.00
2022-08-20T04:55:00.715Z,100.00
2022-08-20T04:55:33.248Z,100.00
2022-08-20T04:56:04.852Z,100.00
2022-08-20T04:56:39.632Z,100.00
2022-08-20T04:57:11.246Z,100.00
2022-08-20T04:57:43.271Z,100.00
2022-08-20T04:58:16.835Z,100.00
2022-08-20T04:58:48.802Z,100.00
2022-08-20T04:59:20.221Z,100.00
2022-08-20T04:59:55.575Z,100.00
2022-08-20T05:00:31.774Z,100.00
2022-08-20T05:01:05.136Z,100.00
2022-08-20T05:01:36.673Z,100.00
2022-08-20T05:02:08.292Z,100.00
2022-08-20T05:02:39.999Z,100.00
2022-08-20T05:03:12.075Z,100.00
2022-08-20T05:03:43.583Z,100.00
2022-08-20T05:04:15.175Z,100.00
2022-08-20T05:04:47.642Z,100.00
2022-08-20T05:05:19.560Z,100.00
2022-08-20T05:05:51.857Z,100.00
2022-08-20T05:06:25.429Z,100.00
2022-08-20T05:06:56.868Z,100.00
2022-08-20T05:07:28.396Z,100.00
2022-08-20T05:08:00.899Z,100.00
2022-08-20T05:08:33.409Z,100.00
2022-08-20T05:09:04.992Z,100.00
2022-08-20T05:09:43.869Z,100.00
2022-08-20T05:10:17.097Z,100.00
2022-08-20T05:10:48.846Z,100.00
2022-08-20T05:11:35.344Z,100.00
2022-08-20T05:12:08.248Z,100.00
2022-08-20T05:12:43.925Z,100.00
2022-08-20T05:13:28.633Z,100.00
2022-08-20T05:14:00.084Z,100.00
2022-08-20T05:14:31.512Z,100.00
2022-08-20T05:15:03.628Z,100.00
2022-08-20T05:15:35.962Z,100.00
2022-08-20T05:16:08.142Z,100.00
2022-08-20T05:16:40.416Z,100.00
2022-08-20T05:17:14.640Z,100.00
2022-08-20T05:17:46.145Z,100.00
2022-08-20T05:18:18.983Z,100.00
2022-08-20T05:18:52.833Z,100.00
2022-08-20T05:19:24.483Z,100.00
2022-08-20T05:19:55.932Z,100.00
2022-08-20T05:20:31.752Z,100.00
2022-08-20T05:21:06.287Z,100.00
2022-08-20T05:21:38.084Z,100.00
2022-08-20T05:22:09.510Z,100.00
2022-08-20T05:22:40.958Z,100.00
2022-08-20T05:23:13.289Z,100.00
2022-08-20T05:23:44.797Z,100.00
2022-08-20T05:24:16.478Z,100.00
2022-08-20T05:24:47.905Z,100.00
2022-08-20T05:25:21.227Z,100.00
2022-08-20T05:25:52.732Z,100.00
2022-08-20T05:26:26.377Z,100.00
2022-08-20T05:26:59.343Z,100.00
2022-08-20T05:27:31.057Z,100.00
2022-08-20T05:28:07.496Z,100.00
2022-08-20T05:28:52.809Z,100.00
2022-08-20T05:29:29.975Z,100.00
2022-08-20T05:30:07.306Z,100.00
2022-08-20T05:30:43.017Z,100.00
2022-08-20T05:31:15.293Z,100.00
2022-08-20T05:31:46.728Z,100.00
2022-08-20T05:32:18.208Z,100.00
2022-08-20T05:32:50.447Z,100.00
2022-08-20T05:33:25.628Z,100.00
2022-08-20T05:33:57.885Z,100.00
2022-08-20T05:34:29.312Z,100.00
2022-08-20T05:35:01.421Z,100.00
2022-08-20T05:35:38.550Z,100.00
2022-08-20T05:36:10.145Z,100.00
2022-08-20T05:36:49.300Z,100.00
2022-08-20T05:37:20.989Z,100.00
2022-08-20T05:37:52.644Z,100.00
2022-08-20T05:38:26.390Z,100.00
2022-08-20T05:38:57.954Z,100.00
2022-08-20T05:39:29.411Z,100.00
2022-08-20T05:40:00.903Z,100.00
2022-08-20T05:40:34.218Z,100.00
2022-08-20T05:41:05.942Z,100.00
2022-08-20T05:41:38.370Z,100.00
2022-08-20T05:42:11.163Z,100.00
2022-08-20T05:42:43.415Z,100.00
2022-08-20T05:43:14.869Z,100.00
2022-08-20T05:43:46.336Z,100.00
2022-08-20T05:44:23.444Z,100.00
2022-08-20T05:44:55.088Z,100.00
2022-08-20T05:45:26.579Z,100.00
2022-08-20T05:45:58.501Z,100.00
2022-08-20T05:46:31.486Z,100.00
2022-08-20T05:47:04.438Z,100.00
2022-08-20T05:47:42.662Z,100.00
2022-08-20T05:48:15.697Z,100.00
2022-08-20T05:48:47.143Z,100.00
2022-08-20T05:49:20.251Z,100.00
2022-08-20T05:49:52.092Z,100.00
2022-08-20T05:50:23.682Z,100.00
2022-08-20T05:50:55.220Z,100.00
2022-08-20T05:51:27.320Z,100.00
2022-08-20T05:51:59.215Z,100.00
2022-08-20T05:52:31.143Z,100.00
2022-08-20T05:53:03.004Z,100.00
2022-08-20T05:53:34.446Z,100.00
2022-08-20T05:54:06.730Z,100.00
2022-08-20T05:54:38.306Z,100.00
2022-08-20T05:55:10.306Z,100.00
2022-08-20T05:55:41.880Z,100.00
2022-08-20T05:56:13.426Z,100.00
2022-08-20T05:56:44.871Z,100.00
2022-08-20T05:57:19.961Z,100.00
2022-08-20T05:57:53.164Z,100.00
2022-08-20T05:58:26.460Z,100.00
2022-08-20T05:58:59.783Z,100.00
2022-08-20T05:59:31.221Z,100.00
2022-08-20T06:00:05.134Z,100.00
2022-08-20T06:00:42.954Z,100.00
2022-08-20T06:01:14.419Z,100.00
2022-08-20T06:01:45.944Z,100.00
2022-08-20T06:02:35.864Z,100.00
2022-08-20T06:03:26.007Z,100.00
2022-08-20T06:04:16.067Z,100.00
2022-08-20T06:04:47.504Z,100.00
2022-08-20T06:05:27.668Z,100.00
2022-08-20T06:05:59.253Z,100.00
2022-08-20T06:06:45.214Z,100.00
2022-08-20T06:07:17.962Z,100.00
2022-08-20T06:07:50.818Z,100.00
2022-08-20T06:08:26.224Z,100.00
2022-08-20T06:08:57.662Z,100.00
2022-08-20T06:09:31.982Z,100.00
2022-08-20T06:10:04.408Z,100.00
2022-08-20T06:10:36.119Z,100.00
2022-08-20T06:11:08.059Z,100.00
2022-08-20T06:11:39.554Z,100.00
2022-08-20T06:12:11.073Z,100.00
2022-08-20T06:12:44.434Z,100.00
2022-08-20T06:13:15.879Z,100.00
2022-08-20T06:13:47.439Z,100.00
2022-08-20T06:14:19.042Z,100.00
2022-08-20T06:14:50.566Z,100.00
2022-08-20T06:15:22.484Z,100.00
2022-08-20T06:15:55.846Z,100.00
2022-08-20T06:16:29.033Z,100.00
2022-08-20T06:17:02.345Z,100.00
2022-08-20T06:17:39.401Z,99.66
2022-08-20T06:18:27.793Z,97.78
2022-08-20T06:19:00.513Z,95.75
2022-08-20T06:19:35.077Z,94.09
2022-08-20T06:20:07.879Z,93.21
2022-08-20T06:20:39.675Z,93.92
2022-08-20T06:21:11.150Z,94.13
2022-08-20T06:21:42.687Z,93.86
2022-08-20T06:22:18.349Z,94.75
2022-08-20T06:22:53.037Z,95.27
2022-08-20T06:23:25.358Z,95.24
2022-08-20T06:23:59.529Z,95.02
2022-08-20T06:24:33.840Z,92.79
2022-08-20T06:25:06.694Z,92.53
2022-08-20T06:25:38.856Z,91.42
2022-08-20T06:26:11.129Z,90.99
2022-08-20T06:26:42.631Z,91.64
2022-08-20T06:27:14.803Z,91.93
2022-08-20T06:27:46.425Z,92.04
2022-08-20T06:28:18.719Z,92.51
2022-08-20T06:28:50.140Z,93.12
2022-08-20T06:29:26.101Z,93.72
2022-08-20T06:29:57.591Z,93.09
2022-08-20T06:30:29.272Z,94.04
2022-08-20T06:31:00.736Z,94.75
2022-08-20T06:31:32.683Z,94.83
2022-08-20T06:32:04.308Z,94.78
2022-08-20T06:32:35.776Z,96.13
2022-08-20T06:33:07.401Z,96.37
2022-08-20T06:33:38.827Z,96.73
2022-08-20T06:34:10.331Z,96.93
2022-08-20T06:34:49.069Z,96.10
2022-08-20T06:35:22.280Z,97.04
2022-08-20T06:35:54.896Z,97.93
2022-08-20T06:36:27.433Z,96.84
2022-08-20T06:36:59.190Z,97.40
2022-08-20T06:37:32.345Z,99.01
2022-08-20T06:38:05.341Z,100.00
2022-08-20T06:38:38.649Z,99.63
2022-08-20T06:39:10.220Z,100.00
2022-08-20T06:39:42.057Z,100.00
2022-08-20T06:40:14.965Z,100.00
2022-08-20T06:40:46.445Z,100.00
2022-08-20T06:41:18.062Z,100.00
2022-08-20T06:41:49.656Z,100.00
2022-08-20T06:42:21.358Z,100.00
2022-08-20T06:42:52.870Z,100.00
2022-08-20T06:43:24.334Z,100.00
2022-08-20T06:43:56.442Z,100.00
2022-08-20T06:44:28.411Z,100.00
2022-08-20T06:45:00.534Z,100.00
2022-08-20T06:45:32.562Z,100.00
2022-08-20T06:46:06.497Z,100.00
2022-08-20T06:46:38.197Z,100.00
2022-08-20T06:47:09.664Z,100.00
2022-08-20T06:47:41.587Z,100.00
2022-08-20T06:48:15.326Z,100.00
2022-08-20T06:48:47.003Z,100.00
2022-08-20T06:49:18.611Z,100.00
2022-08-20T06:49:50.093Z,100.00
2022-08-20T06:50:29.417Z,100.00
2022-08-20T06:51:01.437Z,100.00
2022-08-20T06:51:34.169Z,100.00
2022-08-20T06:52:05.895Z,100.00
2022-08-20T06:52:52.974Z,100.00
2022-08-20T06:53:25.450Z,100.00
2022-08-20T06:53:56.920Z,100.00
2022-08-20T06:54:29.530Z,100.00
2022-08-20T06:55:01.237Z,100.00
2022-08-20T06:55:32.975Z,100.00
2022-08-20T06:56:04.469Z,100.00
2022-08-20T06:56:36.221Z,100.00
2022-08-20T06:57:07.652Z,100.00
2022-08-20T06:57:39.144Z,100.00